sensor_id;sensor_type;location;lat;lon;timestamp;P1;durP1;ratioP1;P2;durP2;ratioP2
15536;SDS011;7870;52.448;13.270;2022-07-01T00:00:26;12.57;;;11.32;;
15536;SDS011;7870;52.448;13.270;2022-07-01T00:02:52;12.82;;;10.70;;
15536;SDS011;7870;52.448;13.270;2022-07-01T00:05:24;12.35;;;11.15;;
15536;SDS011;7870;52.448;13.270;2022-07-01T00:07:53;12.27;;;11.18;;
15536;SDS011;7870;52.448;13.270;2022-07-01T00:10:19;12.90;;;11.57;;
15536;SDS011;7870;52.448;13.270;2022-07-01T00:12:47;12.63;;;11.35;;
15536;SDS011;7870;52.448;13.270;2022-07-01T00:15:17;11.07;;;10.18;;
15536;SDS011;7870;52.448;13.270;2022-07-01T00:17:44;12.65;;;11.52;;
15536;SDS011;7870;52.448;13.270;2022-07-01T00:20:15;12.25;;;11.05;;
15536;SDS011;7870;52.448;13.270;2022-07-01T00:22:44;12.05;;;11.02;;
15536;SDS011;7870;52.448;13.270;2022-07-01T00:25:11;13.07;;;11.75;;
15536;SDS011;7870;52.448;13.270;2022-07-01T00:27:38;12.73;;;11.52;;
15536;SDS011;7870;52.448;13.270;2022-07-01T00:30:07;13.23;;;12.02;;
15536;SDS011;7870;52.448;13.270;2022-07-01T00:32:40;12.82;;;11.80;;
15536;SDS011;7870;52.448;13.270;2022-07-01T00:35:07;13.48;;;12.25;;
15536;SDS011;7870;52.448;13.270;2022-07-01T00:37:37;13.75;;;12.57;;
15536;SDS011;7870;52.448;13.270;2022-07-01T00:40:06;14.40;;;12.97;;
15536;SDS011;7870;52.448;13.270;2022-07-01T00:42:39;12.52;;;11.52;;
15536;SDS011;7870;52.448;13.270;2022-07-01T00:45:08;13.23;;;12.13;;
15536;SDS011;7870;52.448;13.270;2022-07-01T00:47:36;14.13;;;12.90;;
15536;SDS011;7870;52.448;13.270;2022-07-01T00:50:05;13.20;;;12.10;;
15536;SDS011;7870;52.448;13.270;2022-07-01T00:52:33;13.90;;;12.55;;
15536;SDS011;7870;52.448;13.270;2022-07-01T00:55:05;13.85;;;12.48;;
15536;SDS011;7870;52.448;13.270;2022-07-01T00:57:35;14.23;;;12.82;;
15536;SDS011;7870;52.448;13.270;2022-07-01T01:00:07;14.73;;;13.35;;
15536;SDS011;7870;52.448;13.270;2022-07-01T01:02:55;15.98;;;14.55;;
15536;SDS011;7870;52.448;13.270;2022-07-01T01:05:23;15.65;;;14.07;;
15536;SDS011;7870;52.448;13.270;2022-07-01T01:07:52;14.05;;;12.70;;
15536;SDS011;7870;52.448;13.270;2022-07-01T01:10:18;14.95;;;13.43;;
15536;SDS011;7870;52.448;13.270;2022-07-01T01:12:45;14.80;;;13.30;;
15536;SDS011;7870;52.448;13.270;2022-07-01T01:15:18;15.02;;;13.63;;
15536;SDS011;7870;52.448;13.270;2022-07-01T01:17:53;16.55;;;14.90;;
15536;SDS011;7870;52.448;13.270;2022-07-01T01:20:19;15.43;;;14.02;;
15536;SDS011;7870;52.448;13.270;2022-07-01T01:22:46;15.43;;;14.15;;
15536;SDS011;7870;52.448;13.270;2022-07-01T01:25:16;16.20;;;14.65;;
15536;SDS011;7870;52.448;13.270;2022-07-01T01:27:44;15.18;;;13.93;;
15536;SDS011;7870;52.448;13.270;2022-07-01T01:30:15;16.40;;;14.98;;
15536;SDS011;7870;52.448;13.270;2022-07-01T01:32:43;17.23;;;15.73;;
15536;SDS011;7870;52.448;13.270;2022-07-01T01:35:10;15.43;;;13.93;;
15536;SDS011;7870;52.448;13.270;2022-07-01T01:37:37;15.57;;;14.27;;
15536;SDS011;7870;52.448;13.270;2022-07-01T01:40:03;15.75;;;14.30;;
15536;SDS011;7870;52.448;13.270;2022-07-01T01:42:30;16.45;;;14.75;;
15536;SDS011;7870;52.448;13.270;2022-07-01T01:44:57;17.80;;;16.13;;
15536;SDS011;7870;52.448;13.270;2022-07-01T01:47:23;17.63;;;15.93;;
15536;SDS011;7870;52.448;13.270;2022-07-01T01:49:50;18.45;;;16.95;;
15536;SDS011;7870;52.448;13.270;2022-07-01T01:52:17;17.80;;;15.23;;
15536;SDS011;7870;52.448;13.270;2022-07-01T01:54:43;18.65;;;16.95;;
15536;SDS011;7870;52.448;13.270;2022-07-01T01:57:15;18.60;;;17.10;;
15536;SDS011;7870;52.448;13.270;2022-07-01T01:59:44;19.02;;;17.35;;
15536;SDS011;7870;52.448;13.270;2022-07-01T02:02:14;19.02;;;17.33;;
15536;SDS011;7870;52.448;13.270;2022-07-01T02:04:40;17.70;;;16.20;;
15536;SDS011;7870;52.448;13.270;2022-07-01T02:07:07;20.10;;;18.33;;
15536;SDS011;7870;52.448;13.270;2022-07-01T02:09:33;18.88;;;17.27;;
15536;SDS011;7870;52.448;13.270;2022-07-01T02:12:00;20.10;;;18.40;;
15536;SDS011;7870;52.448;13.270;2022-07-01T02:14:26;19.15;;;17.45;;
15536;SDS011;7870;52.448;13.270;2022-07-01T02:16:53;20.30;;;18.25;;
15536;SDS011;7870;52.448;13.270;2022-07-01T02:19:20;19.88;;;18.17;;
15536;SDS011;7870;52.448;13.270;2022-07-01T02:21:46;21.05;;;19.08;;
15536;SDS011;7870;52.448;13.270;2022-07-01T02:24:13;20.13;;;18.27;;
15536;SDS011;7870;52.448;13.270;2022-07-01T02:26:39;20.80;;;18.98;;
15536;SDS011;7870;52.448;13.270;2022-07-01T02:29:06;21.23;;;19.33;;
15536;SDS011;7870;52.448;13.270;2022-07-01T02:31:32;22.02;;;19.95;;
15536;SDS011;7870;52.448;13.270;2022-07-01T02:34:02;21.38;;;19.40;;
15536;SDS011;7870;52.448;13.270;2022-07-01T02:36:36;20.98;;;19.25;;
15536;SDS011;7870;52.448;13.270;2022-07-01T02:39:03;20.65;;;18.90;;
15536;SDS011;7870;52.448;13.270;2022-07-01T02:41:29;22.25;;;20.13;;
15536;SDS011;7870;52.448;13.270;2022-07-01T02:43:56;21.52;;;19.77;;
15536;SDS011;7870;52.448;13.270;2022-07-01T02:46:22;21.23;;;19.42;;
15536;SDS011;7870;52.448;13.270;2022-07-01T02:48:49;21.70;;;19.67;;
15536;SDS011;7870;52.448;13.270;2022-07-01T02:51:16;21.08;;;19.38;;
15536;SDS011;7870;52.448;13.270;2022-07-01T02:53:42;22.10;;;20.10;;
15536;SDS011;7870;52.448;13.270;2022-07-01T02:56:09;21.75;;;19.85;;
15536;SDS011;7870;52.448;13.270;2022-07-01T02:58:38;23.73;;;21.65;;
15536;SDS011;7870;52.448;13.270;2022-07-01T03:01:07;22.42;;;20.30;;
15536;SDS011;7870;52.448;13.270;2022-07-01T03:03:38;22.73;;;20.73;;
15536;SDS011;7870;52.448;13.270;2022-07-01T03:06:04;23.88;;;21.77;;
15536;SDS011;7870;52.448;13.270;2022-07-01T03:08:31;21.00;;;19.17;;
15536;SDS011;7870;52.448;13.270;2022-07-01T03:10:57;22.02;;;20.00;;
15536;SDS011;7870;52.448;13.270;2022-07-01T03:13:23;23.77;;;21.77;;
15536;SDS011;7870;52.448;13.270;2022-07-01T03:15:50;23.60;;;21.50;;
15536;SDS011;7870;52.448;13.270;2022-07-01T03:18:16;24.08;;;22.02;;
15536;SDS011;7870;52.448;13.270;2022-07-01T03:20:43;23.65;;;21.55;;
15536;SDS011;7870;52.448;13.270;2022-07-01T03:23:09;23.52;;;21.52;;
15536;SDS011;7870;52.448;13.270;2022-07-01T03:25:36;23.40;;;21.20;;
15536;SDS011;7870;52.448;13.270;2022-07-01T03:28:03;24.90;;;22.58;;
15536;SDS011;7870;52.448;13.270;2022-07-01T03:30:30;24.60;;;22.42;;
15536;SDS011;7870;52.448;13.270;2022-07-01T03:32:57;25.10;;;22.80;;
15536;SDS011;7870;52.448;13.270;2022-07-01T03:35:24;24.58;;;22.55;;
15536;SDS011;7870;52.448;13.270;2022-07-01T03:38:03;23.38;;;21.38;;
15536;SDS011;7870;52.448;13.270;2022-07-01T03:40:30;25.00;;;22.80;;
15536;SDS011;7870;52.448;13.270;2022-07-01T03:42:57;25.23;;;23.02;;
15536;SDS011;7870;52.448;13.270;2022-07-01T03:45:24;24.67;;;22.48;;
15536;SDS011;7870;52.448;13.270;2022-07-01T03:47:50;25.67;;;23.48;;
15536;SDS011;7870;52.448;13.270;2022-07-01T03:50:17;24.75;;;22.75;;
15536;SDS011;7870;52.448;13.270;2022-07-01T03:52:46;26.73;;;24.35;;
15536;SDS011;7870;52.448;13.270;2022-07-01T03:55:13;24.83;;;22.70;;
15536;SDS011;7870;52.448;13.270;2022-07-01T03:57:39;25.63;;;23.33;;
15536;SDS011;7870;52.448;13.270;2022-07-01T04:00:06;26.15;;;23.67;;
15536;SDS011;7870;52.448;13.270;2022-07-01T04:02:32;26.38;;;24.17;;
15536;SDS011;7870;52.448;13.270;2022-07-01T04:04:59;25.98;;;23.88;;
15536;SDS011;7870;52.448;13.270;2022-07-01T04:07:26;25.73;;;23.55;;
15536;SDS011;7870;52.448;13.270;2022-07-01T04:09:52;26.75;;;24.45;;
15536;SDS011;7870;52.448;13.270;2022-07-01T04:12:19;25.77;;;23.73;;
15536;SDS011;7870;52.448;13.270;2022-07-01T04:14:45;24.50;;;22.48;;
15536;SDS011;7870;52.448;13.270;2022-07-01T04:17:12;26.08;;;23.77;;
15536;SDS011;7870;52.448;13.270;2022-07-01T04:19:38;26.25;;;24.00;;
15536;SDS011;7870;52.448;13.270;2022-07-01T04:22:05;26.13;;;23.75;;
15536;SDS011;7870;52.448;13.270;2022-07-01T04:24:50;25.52;;;23.15;;
15536;SDS011;7870;52.448;13.270;2022-07-01T04:27:17;27.15;;;24.65;;
15536;SDS011;7870;52.448;13.270;2022-07-01T04:29:43;26.83;;;24.45;;
15536;SDS011;7870;52.448;13.270;2022-07-01T04:32:10;26.88;;;24.55;;
15536;SDS011;7870;52.448;13.270;2022-07-01T04:34:36;27.35;;;25.00;;
15536;SDS011;7870;52.448;13.270;2022-07-01T04:37:03;26.83;;;24.40;;
15536;SDS011;7870;52.448;13.270;2022-07-01T04:39:30;27.38;;;24.75;;
15536;SDS011;7870;52.448;13.270;2022-07-01T04:41:57;27.35;;;24.88;;
15536;SDS011;7870;52.448;13.270;2022-07-01T04:44:28;26.02;;;23.80;;
15536;SDS011;7870;52.448;13.270;2022-07-01T04:46:55;26.13;;;23.90;;
15536;SDS011;7870;52.448;13.270;2022-07-01T04:49:21;26.90;;;24.40;;
15536;SDS011;7870;52.448;13.270;2022-07-01T04:51:48;25.88;;;23.77;;
15536;SDS011;7870;52.448;13.270;2022-07-01T04:54:15;26.38;;;23.98;;
15536;SDS011;7870;52.448;13.270;2022-07-01T04:56:41;26.10;;;23.90;;
15536;SDS011;7870;52.448;13.270;2022-07-01T04:59:10;25.73;;;23.33;;
15536;SDS011;7870;52.448;13.270;2022-07-01T05:01:37;25.50;;;23.20;;
15536;SDS011;7870;52.448;13.270;2022-07-01T05:04:04;25.35;;;22.98;;
15536;SDS011;7870;52.448;13.270;2022-07-01T05:06:30;24.73;;;22.65;;
15536;SDS011;7870;52.448;13.270;2022-07-01T05:08:57;24.00;;;21.70;;
15536;SDS011;7870;52.448;13.270;2022-07-01T05:11:24;25.13;;;22.92;;
15536;SDS011;7870;52.448;13.270;2022-07-01T05:14:00;24.63;;;22.35;;
15536;SDS011;7870;52.448;13.270;2022-07-01T05:16:27;24.85;;;22.33;;
15536;SDS011;7870;52.448;13.270;2022-07-01T05:18:53;23.67;;;21.35;;
15536;SDS011;7870;52.448;13.270;2022-07-01T05:21:39;24.15;;;21.80;;
15536;SDS011;7870;52.448;13.270;2022-07-01T05:24:25;23.48;;;21.23;;
15536;SDS011;7870;52.448;13.270;2022-07-01T05:26:51;22.98;;;21.00;;
15536;SDS011;7870;52.448;13.270;2022-07-01T05:29:18;23.73;;;21.13;;
15536;SDS011;7870;52.448;13.270;2022-07-01T05:31:45;24.10;;;21.88;;
15536;SDS011;7870;52.448;13.270;2022-07-01T05:34:11;23.40;;;21.27;;
15536;SDS011;7870;52.448;13.270;2022-07-01T05:36:38;46.40;;;42.17;;
15536;SDS011;7870;52.448;13.270;2022-07-01T05:39:04;24.60;;;22.50;;
15536;SDS011;7870;52.448;13.270;2022-07-01T05:41:31;24.42;;;22.20;;
15536;SDS011;7870;52.448;13.270;2022-07-01T05:43:58;23.67;;;21.58;;
15536;SDS011;7870;52.448;13.270;2022-07-01T05:46:25;24.75;;;22.58;;
15536;SDS011;7870;52.448;13.270;2022-07-01T05:48:51;23.17;;;21.27;;
15536;SDS011;7870;52.448;13.270;2022-07-01T05:51:18;23.92;;;21.73;;
15536;SDS011;7870;52.448;13.270;2022-07-01T05:53:44;24.60;;;22.50;;
15536;SDS011;7870;52.448;13.270;2022-07-01T05:56:13;23.73;;;21.67;;
15536;SDS011;7870;52.448;13.270;2022-07-01T05:58:41;23.50;;;21.45;;
15536;SDS011;7870;52.448;13.270;2022-07-01T06:01:07;23.67;;;21.65;;
15536;SDS011;7870;52.448;13.270;2022-07-01T06:03:35;23.33;;;21.02;;
15536;SDS011;7870;52.448;13.270;2022-07-01T06:06:02;23.52;;;21.33;;
15536;SDS011;7870;52.448;13.270;2022-07-01T06:08:28;23.75;;;21.75;;
15536;SDS011;7870;52.448;13.270;2022-07-01T06:10:55;24.00;;;21.90;;
15536;SDS011;7870;52.448;13.270;2022-07-01T06:13:21;23.48;;;21.38;;
15536;SDS011;7870;52.448;13.270;2022-07-01T06:15:51;24.35;;;22.05;;
15536;SDS011;7870;52.448;13.270;2022-07-01T06:18:18;23.15;;;21.17;;
15536;SDS011;7870;52.448;13.270;2022-07-01T06:20:44;23.35;;;21.23;;
15536;SDS011;7870;52.448;13.270;2022-07-01T06:23:11;21.73;;;19.75;;
15536;SDS011;7870;52.448;13.270;2022-07-01T06:25:47;26.15;;;23.65;;
15536;SDS011;7870;52.448;13.270;2022-07-01T06:28:16;23.27;;;21.27;;
15536;SDS011;7870;52.448;13.270;2022-07-01T06:30:43;23.27;;;21.15;;
15536;SDS011;7870;52.448;13.270;2022-07-01T06:36:06;22.95;;;20.73;;
15536;SDS011;7870;52.448;13.270;2022-07-01T06:38:40;23.77;;;21.50;;
15536;SDS011;7870;52.448;13.270;2022-07-01T06:41:07;22.02;;;19.77;;
15536;SDS011;7870;52.448;13.270;2022-07-01T06:43:58;22.85;;;20.77;;
15536;SDS011;7870;52.448;13.270;2022-07-01T06:46:33;23.73;;;21.52;;
15536;SDS011;7870;52.448;13.270;2022-07-01T06:49:15;22.80;;;20.90;;
15536;SDS011;7870;52.448;13.270;2022-07-01T06:51:41;21.60;;;19.52;;
15536;SDS011;7870;52.448;13.270;2022-07-01T06:54:08;21.42;;;19.52;;
15536;SDS011;7870;52.448;13.270;2022-07-01T06:56:35;20.30;;;18.38;;
15536;SDS011;7870;52.448;13.270;2022-07-01T06:59:02;19.80;;;17.92;;
15536;SDS011;7870;52.448;13.270;2022-07-01T07:01:28;20.27;;;18.40;;
15536;SDS011;7870;52.448;13.270;2022-07-01T07:03:55;20.35;;;18.25;;
15536;SDS011;7870;52.448;13.270;2022-07-01T07:06:22;18.17;;;16.23;;
15536;SDS011;7870;52.448;13.270;2022-07-01T07:08:48;17.17;;;15.68;;
15536;SDS011;7870;52.448;13.270;2022-07-01T07:11:15;16.23;;;14.93;;
15536;SDS011;7870;52.448;13.270;2022-07-01T07:13:42;16.58;;;14.98;;
15536;SDS011;7870;52.448;13.270;2022-07-01T07:16:08;18.20;;;15.13;;
15536;SDS011;7870;52.448;13.270;2022-07-01T07:18:35;15.35;;;14.00;;
15536;SDS011;7870;52.448;13.270;2022-07-01T07:21:03;14.40;;;12.95;;
15536;SDS011;7870;52.448;13.270;2022-07-01T07:23:30;12.63;;;11.50;;
15536;SDS011;7870;52.448;13.270;2022-07-01T07:25:58;13.10;;;11.88;;
15536;SDS011;7870;52.448;13.270;2022-07-01T07:28:25;12.52;;;11.52;;
15536;SDS011;7870;52.448;13.270;2022-07-01T07:30:51;16.40;;;11.98;;
15536;SDS011;7870;52.448;13.270;2022-07-01T07:33:18;13.30;;;12.07;;
15536;SDS011;7870;52.448;13.270;2022-07-01T07:35:45;11.98;;;10.82;;
15536;SDS011;7870;52.448;13.270;2022-07-01T07:38:11;11.55;;;10.52;;
15536;SDS011;7870;52.448;13.270;2022-07-01T07:40:38;11.80;;;10.38;;
15536;SDS011;7870;52.448;13.270;2022-07-01T07:43:04;10.57;;;9.52;;
15536;SDS011;7870;52.448;13.270;2022-07-01T07:46:08;12.88;;;10.55;;
15536;SDS011;7870;52.448;13.270;2022-07-01T07:48:35;11.77;;;10.68;;
15536;SDS011;7870;52.448;13.270;2022-07-01T07:51:01;11.45;;;10.13;;
15536;SDS011;7870;52.448;13.270;2022-07-01T07:53:28;11.88;;;10.77;;
15536;SDS011;7870;52.448;13.270;2022-07-01T07:55:58;11.25;;;10.15;;
15536;SDS011;7870;52.448;13.270;2022-07-01T07:58:37;12.10;;;10.93;;
15536;SDS011;7870;52.448;13.270;2022-07-01T08:01:19;12.10;;;10.90;;
15536;SDS011;7870;52.448;13.270;2022-07-01T08:06:41;12.30;;;11.10;;
15536;SDS011;7870;52.448;13.270;2022-07-01T08:09:08;11.93;;;10.82;;
15536;SDS011;7870;52.448;13.270;2022-07-01T08:11:38;13.32;;;11.40;;
15536;SDS011;7870;52.448;13.270;2022-07-01T08:14:05;12.25;;;11.05;;
15536;SDS011;7870;52.448;13.270;2022-07-01T08:16:32;10.88;;;9.77;;
15536;SDS011;7870;52.448;13.270;2022-07-01T08:18:59;10.93;;;9.13;;
15536;SDS011;7870;52.448;13.270;2022-07-01T08:21:26;8.13;;;7.35;;
15536;SDS011;7870;52.448;13.270;2022-07-01T08:23:54;9.27;;;7.55;;
15536;SDS011;7870;52.448;13.270;2022-07-01T08:26:23;7.82;;;6.35;;
15536;SDS011;7870;52.448;13.270;2022-07-01T08:28:50;7.05;;;5.93;;
15536;SDS011;7870;52.448;13.270;2022-07-01T08:40:12;11.32;;;7.95;;
15536;SDS011;7870;52.448;13.270;2022-07-01T08:42:39;7.13;;;5.65;;
15536;SDS011;7870;52.448;13.270;2022-07-01T08:45:07;7.22;;;5.88;;
15536;SDS011;7870;52.448;13.270;2022-07-01T08:47:34;8.93;;;6.18;;
15536;SDS011;7870;52.448;13.270;2022-07-01T08:50:01;6.65;;;6.05;;
15536;SDS011;7870;52.448;13.270;2022-07-01T08:52:30;7.95;;;5.93;;
15536;SDS011;7870;52.448;13.270;2022-07-01T08:55:00;6.15;;;5.55;;
15536;SDS011;7870;52.448;13.270;2022-07-01T08:57:26;5.72;;;5.10;;
15536;SDS011;7870;52.448;13.270;2022-07-01T09:00:00;6.63;;;4.28;;
15536;SDS011;7870;52.448;13.270;2022-07-01T09:02:27;3.50;;;2.95;;
15536;SDS011;7870;52.448;13.270;2022-07-01T09:05:06;5.65;;;2.78;;
15536;SDS011;7870;52.448;13.270;2022-07-01T09:07:33;4.53;;;2.38;;
15536;SDS011;7870;52.448;13.270;2022-07-01T09:10:11;4.20;;;2.17;;
15536;SDS011;7870;52.448;13.270;2022-07-01T09:12:38;5.77;;;2.50;;
15536;SDS011;7870;52.448;13.270;2022-07-01T09:15:21;4.05;;;1.92;;
15536;SDS011;7870;52.448;13.270;2022-07-01T09:17:48;4.32;;;2.42;;
15536;SDS011;7870;52.448;13.270;2022-07-01T09:20:24;3.10;;;1.98;;
15536;SDS011;7870;52.448;13.270;2022-07-01T09:23:04;2.83;;;1.90;;
15536;SDS011;7870;52.448;13.270;2022-07-01T09:25:32;5.13;;;1.67;;
15536;SDS011;7870;52.448;13.270;2022-07-01T09:28:42;2.33;;;1.13;;
15536;SDS011;7870;52.448;13.270;2022-07-01T09:30:50;2.38;;;1.50;;
15536;SDS011;7870;52.448;13.270;2022-07-01T09:33:17;3.65;;;1.48;;
15536;SDS011;7870;52.448;13.270;2022-07-01T09:35:44;4.35;;;1.27;;
15536;SDS011;7870;52.448;13.270;2022-07-01T09:38:13;4.93;;;1.63;;
15536;SDS011;7870;52.448;13.270;2022-07-01T09:40:58;3.63;;;1.15;;
15536;SDS011;7870;52.448;13.270;2022-07-01T09:43:26;2.33;;;1.30;;
15536;SDS011;7870;52.448;13.270;2022-07-01T09:46:06;2.28;;;1.55;;
15536;SDS011;7870;52.448;13.270;2022-07-01T09:51:00;2.28;;;1.23;;
15536;SDS011;7870;52.448;13.270;2022-07-01T09:53:27;4.40;;;1.48;;
15536;SDS011;7870;52.448;13.270;2022-07-01T09:55:54;6.95;;;1.63;;
15536;SDS011;7870;52.448;13.270;2022-07-01T09:58:20;2.35;;;1.50;;
15536;SDS011;7870;52.448;13.270;2022-07-01T10:00:47;3.30;;;1.20;;
15536;SDS011;7870;52.448;13.270;2022-07-01T10:03:14;2.88;;;1.48;;
15536;SDS011;7870;52.448;13.270;2022-07-01T10:05:45;3.30;;;1.90;;
15536;SDS011;7870;52.448;13.270;2022-07-01T10:13:44;2.25;;;1.58;;
15536;SDS011;7870;52.448;13.270;2022-07-01T10:16:18;2.03;;;1.30;;
15536;SDS011;7870;52.448;13.270;2022-07-01T10:18:45;2.22;;;1.60;;
15536;SDS011;7870;52.448;13.270;2022-07-01T10:21:25;2.08;;;1.30;;
15536;SDS011;7870;52.448;13.270;2022-07-01T10:23:52;2.67;;;1.40;;
15536;SDS011;7870;52.448;13.270;2022-07-01T10:26:18;1.65;;;0.98;;
15536;SDS011;7870;52.448;13.270;2022-07-01T10:28:48;3.70;;;1.27;;
15536;SDS011;7870;52.448;13.270;2022-07-01T10:31:19;2.30;;;1.08;;
15536;SDS011;7870;52.448;13.270;2022-07-01T10:33:58;1.95;;;1.00;;
15536;SDS011;7870;52.448;13.270;2022-07-01T10:36:27;5.70;;;1.92;;
15536;SDS011;7870;52.448;13.270;2022-07-01T10:41:36;1.63;;;0.90;;
15536;SDS011;7870;52.448;13.270;2022-07-01T10:44:07;1.63;;;0.82;;
15536;SDS011;7870;52.448;13.270;2022-07-01T10:46:42;1.48;;;0.60;;
15536;SDS011;7870;52.448;13.270;2022-07-01T10:51:42;1.80;;;0.55;;
15536;SDS011;7870;52.448;13.270;2022-07-01T10:54:09;2.33;;;0.70;;
15536;SDS011;7870;52.448;13.270;2022-07-01T10:56:39;3.13;;;0.45;;
15536;SDS011;7870;52.448;13.270;2022-07-01T10:59:06;1.27;;;0.70;;
15536;SDS011;7870;52.448;13.270;2022-07-01T11:01:32;1.85;;;0.70;;
15536;SDS011;7870;52.448;13.270;2022-07-01T11:03:59;8.68;;;1.80;;
15536;SDS011;7870;52.448;13.270;2022-07-01T11:06:27;5.43;;;1.73;;
15536;SDS011;7870;52.448;13.270;2022-07-01T11:08:54;4.78;;;1.27;;
15536;SDS011;7870;52.448;13.270;2022-07-01T11:11:21;3.60;;;1.17;;
15536;SDS011;7870;52.448;13.270;2022-07-01T11:13:48;2.63;;;1.17;;
15536;SDS011;7870;52.448;13.270;2022-07-01T11:16:15;3.08;;;1.23;;
15536;SDS011;7870;52.448;13.270;2022-07-01T11:18:42;4.22;;;1.23;;
15536;SDS011;7870;52.448;13.270;2022-07-01T11:21:09;4.55;;;1.25;;
15536;SDS011;7870;52.448;13.270;2022-07-01T11:23:36;2.47;;;1.10;;
15536;SDS011;7870;52.448;13.270;2022-07-01T11:28:39;8.15;;;2.80;;
15536;SDS011;7870;52.448;13.270;2022-07-01T11:31:05;6.68;;;2.35;;
15536;SDS011;7870;52.448;13.270;2022-07-01T11:33:32;6.43;;;3.25;;
15536;SDS011;7870;52.448;13.270;2022-07-01T11:35:59;6.22;;;2.65;;
15536;SDS011;7870;52.448;13.270;2022-07-01T11:38:45;6.45;;;2.40;;
15536;SDS011;7870;52.448;13.270;2022-07-01T11:41:30;6.50;;;2.03;;
15536;SDS011;7870;52.448;13.270;2022-07-01T11:43:57;3.28;;;1.83;;
15536;SDS011;7870;52.448;13.270;2022-07-01T11:46:24;3.60;;;2.30;;
15536;SDS011;7870;52.448;13.270;2022-07-01T11:48:51;3.63;;;2.22;;
15536;SDS011;7870;52.448;13.270;2022-07-01T11:51:19;4.18;;;2.45;;
15536;SDS011;7870;52.448;13.270;2022-07-01T11:53:47;2.67;;;1.98;;
15536;SDS011;7870;52.448;13.270;2022-07-01T11:56:16;3.08;;;2.10;;
15536;SDS011;7870;52.448;13.270;2022-07-01T11:58:47;3.88;;;2.80;;
15536;SDS011;7870;52.448;13.270;2022-07-01T12:01:31;3.67;;;2.45;;
15536;SDS011;7870;52.448;13.270;2022-07-01T12:03:58;3.38;;;2.50;;
15536;SDS011;7870;52.448;13.270;2022-07-01T12:06:26;5.93;;;2.70;;
15536;SDS011;7870;52.448;13.270;2022-07-01T12:08:53;4.32;;;3.90;;
15536;SDS011;7870;52.448;13.270;2022-07-01T12:11:21;3.25;;;2.15;;
15536;SDS011;7870;52.448;13.270;2022-07-01T12:13:50;3.33;;;2.63;;
15536;SDS011;7870;52.448;13.270;2022-07-01T12:16:18;2.97;;;2.60;;
15536;SDS011;7870;52.448;13.270;2022-07-01T12:18:58;3.50;;;2.53;;
15536;SDS011;7870;52.448;13.270;2022-07-01T12:21:26;3.75;;;2.50;;
15536;SDS011;7870;52.448;13.270;2022-07-01T12:24:03;3.30;;;2.58;;
15536;SDS011;7870;52.448;13.270;2022-07-01T12:26:30;3.42;;;3.10;;
15536;SDS011;7870;52.448;13.270;2022-07-01T12:28:56;3.55;;;3.15;;
15536;SDS011;7870;52.448;13.270;2022-07-01T12:31:22;2.90;;;2.38;;
15536;SDS011;7870;52.448;13.270;2022-07-01T12:33:49;3.15;;;2.83;;
15536;SDS011;7870;52.448;13.270;2022-07-01T12:36:16;4.28;;;3.50;;
15536;SDS011;7870;52.448;13.270;2022-07-01T12:38:43;3.85;;;3.17;;
15536;SDS011;7870;52.448;13.270;2022-07-01T12:44:08;3.85;;;3.45;;
15536;SDS011;7870;52.448;13.270;2022-07-01T12:46:45;4.25;;;3.65;;
15536;SDS011;7870;52.448;13.270;2022-07-01T12:49:18;5.00;;;4.10;;
15536;SDS011;7870;52.448;13.270;2022-07-01T12:51:46;6.10;;;4.18;;
15536;SDS011;7870;52.448;13.270;2022-07-01T12:54:32;4.45;;;3.67;;
15536;SDS011;7870;52.448;13.270;2022-07-01T12:56:59;5.55;;;4.45;;
15536;SDS011;7870;52.448;13.270;2022-07-01T12:59:26;5.68;;;3.50;;
15536;SDS011;7870;52.448;13.270;2022-07-01T13:01:53;4.88;;;4.38;;
15536;SDS011;7870;52.448;13.270;2022-07-01T13:04:26;4.88;;;3.70;;
15536;SDS011;7870;52.448;13.270;2022-07-01T13:06:53;7.50;;;4.38;;
15536;SDS011;7870;52.448;13.270;2022-07-01T13:09:20;5.93;;;3.65;;
15536;SDS011;7870;52.448;13.270;2022-07-01T13:11:46;4.50;;;3.67;;
15536;SDS011;7870;52.448;13.270;2022-07-01T13:14:13;4.15;;;3.70;;
15536;SDS011;7870;52.448;13.270;2022-07-01T13:16:39;9.98;;;3.90;;
15536;SDS011;7870;52.448;13.270;2022-07-01T13:19:06;5.78;;;4.13;;
15536;SDS011;7870;52.448;13.270;2022-07-01T13:21:32;5.00;;;3.95;;
15536;SDS011;7870;52.448;13.270;2022-07-01T13:23:59;6.00;;;4.63;;
15536;SDS011;7870;52.448;13.270;2022-07-01T13:26:45;4.47;;;3.97;;
15536;SDS011;7870;52.448;13.270;2022-07-01T13:29:12;5.50;;;3.88;;
15536;SDS011;7870;52.448;13.270;2022-07-01T13:31:38;5.22;;;4.30;;
15536;SDS011;7870;52.448;13.270;2022-07-01T13:34:05;4.35;;;3.95;;
15536;SDS011;7870;52.448;13.270;2022-07-01T13:36:35;5.13;;;4.53;;
15536;SDS011;7870;52.448;13.270;2022-07-01T13:39:01;4.93;;;3.67;;
15536;SDS011;7870;52.448;13.270;2022-07-01T13:41:28;4.57;;;3.88;;
15536;SDS011;7870;52.448;13.270;2022-07-01T13:43:54;4.35;;;3.30;;
15536;SDS011;7870;52.448;13.270;2022-07-01T13:46:21;4.40;;;3.85;;
15536;SDS011;7870;52.448;13.270;2022-07-01T13:48:47;4.55;;;3.30;;
15536;SDS011;7870;52.448;13.270;2022-07-01T13:51:13;5.47;;;3.45;;
15536;SDS011;7870;52.448;13.270;2022-07-01T13:53:40;3.70;;;3.00;;
15536;SDS011;7870;52.448;13.270;2022-07-01T13:56:07;5.75;;;3.83;;
15536;SDS011;7870;52.448;13.270;2022-07-01T13:58:33;11.48;;;10.27;;
15536;SDS011;7870;52.448;13.270;2022-07-01T14:00:59;5.60;;;3.90;;
15536;SDS011;7870;52.448;13.270;2022-07-01T14:03:26;4.78;;;4.07;;
15536;SDS011;7870;52.448;13.270;2022-07-01T14:05:54;7.30;;;4.20;;
15536;SDS011;7870;52.448;13.270;2022-07-01T14:08:20;6.65;;;4.10;;
15536;SDS011;7870;52.448;13.270;2022-07-01T14:10:46;6.72;;;4.10;;
15536;SDS011;7870;52.448;13.270;2022-07-01T14:13:13;5.32;;;3.72;;
15536;SDS011;7870;52.448;13.270;2022-07-01T14:15:39;5.07;;;3.92;;
15536;SDS011;7870;52.448;13.270;2022-07-01T14:18:06;5.45;;;4.25;;
15536;SDS011;7870;52.448;13.270;2022-07-01T14:20:32;4.93;;;3.63;;
15536;SDS011;7870;52.448;13.270;2022-07-01T14:22:58;5.78;;;3.90;;
15536;SDS011;7870;52.448;13.270;2022-07-01T14:25:25;5.68;;;3.58;;
15536;SDS011;7870;52.448;13.270;2022-07-01T14:27:51;6.38;;;4.20;;
15536;SDS011;7870;52.448;13.270;2022-07-01T14:30:18;4.60;;;4.03;;
15536;SDS011;7870;52.448;13.270;2022-07-01T14:32:44;6.43;;;4.13;;
15536;SDS011;7870;52.448;13.270;2022-07-01T14:35:10;9.23;;;7.82;;
15536;SDS011;7870;52.448;13.270;2022-07-01T14:37:37;6.72;;;4.82;;
15536;SDS011;7870;52.448;13.270;2022-07-01T14:40:05;6.97;;;4.88;;
15536;SDS011;7870;52.448;13.270;2022-07-01T14:42:32;6.70;;;4.93;;
15536;SDS011;7870;52.448;13.270;2022-07-01T14:44:58;6.90;;;4.65;;
15536;SDS011;7870;52.448;13.270;2022-07-01T14:47:25;6.30;;;4.45;;
15536;SDS011;7870;52.448;13.270;2022-07-01T14:49:51;6.43;;;4.60;;
15536;SDS011;7870;52.448;13.270;2022-07-01T14:52:21;5.45;;;4.15;;
15536;SDS011;7870;52.448;13.270;2022-07-01T14:54:48;5.95;;;4.90;;
15536;SDS011;7870;52.448;13.270;2022-07-01T14:57:17;6.03;;;4.93;;
15536;SDS011;7870;52.448;13.270;2022-07-01T14:59:43;5.70;;;4.20;;
15536;SDS011;7870;52.448;13.270;2022-07-01T15:02:10;7.95;;;5.47;;
15536;SDS011;7870;52.448;13.270;2022-07-01T15:04:36;6.90;;;5.30;;
15536;SDS011;7870;52.448;13.270;2022-07-01T15:07:06;7.45;;;5.43;;
15536;SDS011;7870;52.448;13.270;2022-07-01T15:09:32;7.68;;;5.68;;
15536;SDS011;7870;52.448;13.270;2022-07-01T15:11:59;6.65;;;5.82;;
15536;SDS011;7870;52.448;13.270;2022-07-01T15:14:25;8.30;;;5.10;;